Time;durP1;ratioP1;P1;durP2;ratioP2;P2;SDS_P1;SDS_P2;PMS_P1;PMS_P2;Temp;Humidity;BMP_temperature;BMP_pressure;BME280_temperature;BME280_humidity;BME280_pressure;Samples;Min_cycle;Max_cycle;Signal;HPM_P1;HPM_P2
2022/12/15 00:39:44;;;;;;;0.93;0.93;;;;;;;;;;4934387;29;20036;-73
2022/12/15 00:42:10;;;;;;;1.50;1.40;;;;;;;;;;4921063;29;20042;-72
2022/12/15 00:44:36;;;;;;;0.70;0.70;;;;;;;;;;4920973;29;20146;-73
2022/12/15 00:47:02;;;;;;;1.53;1.43;;;;;;;;;;4952734;29;20047;-73
2022/12/15 01:22:21;;;;;;;1.00;1.00;;;;;;;;;;4939920;29;20035;-72
2022/12/15 01:24:46;;;;;;;0.50;0.50;;;;;;;;;;4923895;29;20046;-72
2022/12/15 01:27:12;;;;;;;0.90;0.90;;;;;;;;;;4939614;29;20046;-72
2022/12/15 01:29:38;;;;;;;1.37;0.90;;;;;;;;;;4924028;29;20094;-72
2022/12/15 01:32:04;;;;;;;1.17;1.13;;;;;;;;;;4939589;29;20542;-72
2022/12/15 01:34:29;;;;;;;1.00;1.00;;;;;;;;;;4924024;29;20043;-72
2022/12/15 01:36:55;;;;;;;1.67;1.33;;;;;;;;;;4923749;29;20484;-72
2022/12/15 01:39:20;;;;;;;1.43;0.87;;;;;;;;;;4923747;29;20058;-71
2022/12/15 01:41:46;;;;;;;1.07;1.07;;;;;;;;;;4939456;29;20031;-72
2022/12/15 01:44:16;;;;;;;1.20;1.10;;;;;;;;;;4955175;29;20039;-72
2022/12/15 01:46:42;;;;;;;0.80;0.80;;;;;;;;;;4923620;29;20442;-73
2022/12/15 01:49:16;;;;;;;0.73;0.73;;;;;;;;;;4939570;29;20277;-72
2022/12/15 01:51:45;;;;;;;1.53;1.43;;;;;;;;;;4923375;29;20381;-73
2022/12/15 01:54:19;;;;;;;0.77;0.77;;;;;;;;;;4955378;29;20136;-73
2022/12/15 01:56:49;;;;;;;0.60;0.60;;;;;;;;;;4923336;29;20047;-73
2022/12/15 01:59:21;;;;;;;0.85;0.85;;;;;;;;;;4939241;29;20051;-74
2022/12/15 02:01:47;;;;;;;0.70;0.70;;;;;;;;;;4939348;29;20047;-73
2022/12/15 02:04:13;;;;;;;1.30;1.20;;;;;;;;;;4922785;29;20481;-73
2022/12/15 02:06:39;;;;;;;0.90;0.90;;;;;;;;;;4939081;29;20133;-73
2022/12/15 02:09:05;;;;;;;1.10;1.00;;;;;;;;;;4923167;29;20470;-75
2022/12/15 02:11:46;;;;;;;0.90;0.90;;;;;;;;;;4923478;29;20086;-71
2022/12/15 02:14:34;;;;;;;0.97;0.97;;;;;;;;;;4939293;29;20039;-72
2022/12/15 02:17:18;;;;;;;1.10;1.07;;;;;;;;;;4938541;29;20469;-72
2022/12/15 02:19:44;;;;;;;0.87;0.70;;;;;;;;;;4922903;29;20425;-72
2022/12/15 02:22:15;;;;;;;1.10;1.10;;;;;;;;;;4922930;29;20035;-73
2022/12/15 02:24:56;;;;;;;0.70;0.70;;;;;;;;;;4939123;29;20425;-73
2022/12/15 02:27:41;;;;;;;0.85;0.85;;;;;;;;;;4922862;29;20098;-73
2022/12/15 02:30:22;;;;;;;0.50;0.50;;;;;;;;;;4938693;29;20039;-72
2022/12/15 02:32:47;;;;;;;;;;;;;;;;;;4923258;29;20134;-73
2022/12/15 02:35:15;;;;;;;0.60;0.60;;;;;;;;;;4938655;29;20017;-72
2022/12/15 02:37:41;;;;;;;0.80;0.80;;;;;;;;;;4938459;29;20081;-72
2022/12/15 02:40:09;;;;;;;0.60;0.60;;;;;;;;;;4922833;29;20043;-73
2022/12/15 02:42:36;;;;;;;0.80;0.80;;;;;;;;;;4922807;29;20576;-72
2022/12/15 02:45:05;;;;;;;0.60;0.60;;;;;;;;;;4922937;29;20371;-72
2022/12/15 02:47:36;;;;;;;2.70;1.73;;;;;;;;;;4938672;29;20157;-72
2022/12/15 02:50:07;;;;;;;0.88;0.88;;;;;;;;;;4922717;29;20035;-72
2022/12/15 02:52:33;;;;;;;1.10;1.10;;;;;;;;;;4922733;29;20042;-73
2022/12/15 02:55:16;;;;;;;0.80;0.80;;;;;;;;;;4922413;29;20597;-72
2022/12/15 02:57:44;;;;;;;0.63;0.63;;;;;;;;;;4954216;29;20424;-73
2022/12/15 03:00:10;;;;;;;0.73;0.73;;;;;;;;;;4922333;29;20465;-73
2022/12/15 03:02:41;;;;;;;0.60;0.60;;;;;;;;;;4922645;29;20031;-73
2022/12/15 03:05:07;;;;;;;1.25;1.25;;;;;;;;;;4938193;29;20070;-73
2022/12/15 03:07:33;;;;;;;1.03;1.03;;;;;;;;;;4922389;29;20453;-72
2022/12/15 03:10:01;;;;;;;1.00;1.00;;;;;;;;;;4932765;29;20058;-72
2022/12/15 03:12:28;;;;;;;1.37;1.27;;;;;;;;;;4946239;28;20042;-73
2022/12/15 03:14:54;;;;;;;1.27;1.20;;;;;;;;;;4920651;29;20136;-72
2022/12/15 03:17:20;;;;;;;1.03;1.03;;;;;;;;;;4920093;29;20453;-73
2022/12/15 03:19:45;;;;;;;0.90;0.90;;;;;;;;;;4919837;28;20433;-73
2022/12/15 03:22:11;;;;;;;0.60;0.60;;;;;;;;;;4935348;29;20081;-74
2022/12/15 03:24:37;;;;;;;1.20;1.10;;;;;;;;;;4918630;29;20062;-73
2022/12/15 03:27:04;;;;;;;0.73;0.73;;;;;;;;;;4934485;29;20470;-73
2022/12/15 03:29:29;;;;;;;1.53;1.00;;;;;;;;;;4933706;29;20075;-73
2022/12/15 03:31:55;;;;;;;1.33;1.23;;;;;;;;;;4918845;29;20441;-73
2022/12/15 03:34:21;;;;;;;1.17;1.13;;;;;;;;;;4920138;29;20053;-71
2022/12/15 03:36:47;;;;;;;0.90;0.90;;;;;;;;;;4937519;29;20067;-72
2022/12/15 03:39:13;;;;;;;1.23;1.13;;;;;;;;;;4921726;29;20449;-73
2022/12/15 03:41:40;;;;;;;1.03;1.03;;;;;;;;;;4921782;29;20090;-70
2022/12/15 03:44:06;;;;;;;1.70;1.57;;;;;;;;;;4921774;29;20035;-70
2022/12/15 03:46:31;;;;;;;1.17;1.07;;;;;;;;;;4921465;29;20050;-70
2022/12/15 03:48:57;;;;;;;0.90;0.90;;;;;;;;;;4921546;29;20466;-71
2022/12/15 03:51:23;;;;;;;0.70;0.70;;;;;;;;;;4937332;29;20039;-70
2022/12/15 03:53:48;;;;;;;1.20;1.20;;;;;;;;;;4937376;29;20035;-69
2022/12/15 03:56:15;;;;;;;0.80;0.80;;;;;;;;;;4921478;29;20069;-72
2022/12/15 03:58:40;;;;;;;1.03;1.03;;;;;;;;;;4921849;29;20051;-75
2022/12/15 04:01:25;;;;;;;0.87;0.87;;;;;;;;;;4922300;29;20035;-71
2022/12/15 04:03:51;;;;;;;0.57;0.57;;;;;;;;;;4921020;29;20390;-73
2022/12/15 04:06:19;;;;;;;2.13;1.93;;;;;;;;;;4937313;29;20035;-72
2022/12/15 04:08:45;;;;;;;3.13;2.50;;;;;;;;;;4953222;29;20039;-70
2022/12/15 04:11:11;;;;;;;3.40;2.00;;;;;;;;;;4921105;29;20118;-75
2022/12/15 04:13:37;;;;;;;1.07;1.07;;;;;;;;;;4921483;29;20039;-71
2022/12/15 04:16:02;;;;;;;1.53;1.43;;;;;;;;;;4920882;29;20035;-71
2022/12/15 04:18:28;;;;;;;1.53;1.43;;;;;;;;;;4936851;29;20043;-72
2022/12/15 04:20:54;;;;;;;1.73;1.53;;;;;;;;;;4921113;29;20047;-71
2022/12/15 04:23:20;;;;;;;2.40;2.23;;;;;;;;;;4936798;29;20437;-72
2022/12/15 05:31:54;;;;;;;1.70;1.60;;;;;;;;;;4953544;29;20043;-69
2022/12/15 05:34:28;;;;;;;1.67;1.60;;;;;;;;;;4920099;29;20050;-70
2022/12/15 05:36:54;;;;;;;3.60;3.10;;;;;;;;;;4940657;29;20085;-70
2022/12/15 05:39:20;;;;;;;1.73;1.63;;;;;;;;;;4951831;28;20043;-70
2022/12/15 05:41:46;;;;;;;3.83;3.13;;;;;;;;;;4951633;29;20112;-68
2022/12/15 05:44:12;;;;;;;12.50;3.57;;;;;;;;;;4935984;29;20458;-71
2022/12/15 05:46:38;;;;;;;3.00;2.70;;;;;;;;;;4918271;29;20050;-69
2022/12/15 05:49:07;;;;;;;2.23;2.07;;;;;;;;;;4935812;29;20832;-70
2022/12/15 05:51:35;;;;;;;1.50;1.40;;;;;;;;;;4934780;29;20663;-68
2022/12/15 05:54:01;;;;;;;1.93;1.73;;;;;;;;;;4952613;28;20039;-68
2022/12/15 05:56:27;;;;;;;2.60;2.37;;;;;;;;;;4904192;29;20058;-68
2022/12/15 05:58:54;;;;;;;5.40;3.97;;;;;;;;;;4935612;29;20355;-69
2022/12/15 06:01:21;;;;;;;4.33;3.60;;;;;;;;;;4935611;29;20470;-68
2022/12/15 06:03:47;;;;;;;3.90;3.50;;;;;;;;;;4919565;29;20051;-68
2022/12/15 06:06:12;;;;;;;5.33;4.07;;;;;;;;;;4935977;29;20390;-71
2022/12/15 06:08:39;;;;;;;12.90;4.67;;;;;;;;;;4919713;29;20035;-69
2022/12/15 06:11:05;;;;;;;2.83;2.63;;;;;;;;;;4935378;29;20042;-69
2022/12/15 06:13:33;;;;;;;2.50;2.30;;;;;;;;;;4918043;29;20039;-70
2022/12/15 06:15:59;;;;;;;3.93;2.83;;;;;;;;;;4934096;29;20031;-67
2022/12/15 06:18:28;;;;;;;4.97;3.60;;;;;;;;;;4933900;29;20043;-68
2022/12/15 06:21:01;;;;;;;3.90;3.20;;;;;;;;;;4931375;29;20059;-67
2022/12/15 06:23:27;;;;;;;3.70;2.63;;;;;;;;;;4949618;29;20130;-68
2022/12/15 06:25:54;;;;;;;5.20;4.33;;;;;;;;;;4950062;28;20071;-68
2022/12/15 06:28:22;;;;;;;5.60;4.03;;;;;;;;;;4948649;29;20474;-73
2022/12/15 06:30:52;;;;;;;1.90;1.80;;;;;;;;;;4918000;29;20697;-69
2022/12/15 06:33:18;;;;;;;2.25;2.05;;;;;;;;;;4917866;29;20074;-68
2022/12/15 06:35:44;;;;;;;4.17;2.87;;;;;;;;;;4933394;29;20038;-67
2022/12/15 06:38:10;;;;;;;3.00;2.30;;;;;;;;;;4933883;29;20043;-68
2022/12/15 06:40:35;;;;;;;3.10;1.80;;;;;;;;;;4932575;29;20094;-68
2022/12/15 06:43:01;;;;;;;2.43;2.23;;;;;;;;;;4933578;29;20038;-68
2022/12/15 06:45:26;;;;;;;2.07;1.97;;;;;;;;;;4933573;29;20034;-68
2022/12/15 06:47:52;;;;;;;1.20;1.20;;;;;;;;;;4932430;29;20035;-67
2022/12/15 06:50:18;;;;;;;0.90;0.90;;;;;;;;;;4932451;29;20126;-67
2022/12/15 06:52:44;;;;;;;7.60;4.53;;;;;;;;;;4916391;29;20039;-67
2022/12/15 06:55:09;;;;;;;1.90;1.80;;;;;;;;;;4918446;29;20094;-69
2022/12/15 06:57:36;;;;;;;2.17;1.80;;;;;;;;;;4916116;29;20047;-68
2022/12/15 07:00:02;;;;;;;1.10;1.10;;;;;;;;;;4934193;29;20213;-67
2022/12/15 07:02:31;;;;;;;1.47;1.37;;;;;;;;;;4934107;29;20050;-67
2022/12/15 07:04:57;;;;;;;6.23;2.50;;;;;;;;;;4918580;29;20059;-68
2022/12/15 07:07:24;;;;;;;1.73;1.63;;;;;;;;;;4934497;29;20046;-67
2022/12/15 07:09:49;;;;;;;5.77;3.03;;;;;;;;;;4934699;29;20185;-67
2022/12/15 07:12:15;;;;;;;2.17;1.90;;;;;;;;;;4934353;29;20039;-66
2022/12/15 07:14:41;;;;;;;2.33;2.23;;;;;;;;;;4918972;29;20039;-67
2022/12/15 07:17:09;;;;;;;3.70;3.27;;;;;;;;;;4934615;29;20109;-67
2022/12/15 07:19:35;;;;;;;3.70;2.70;;;;;;;;;;4950241;29;20047;-67
2022/12/15 07:22:01;;;;;;;1.10;1.10;;;;;;;;;;4950896;29;20481;-67
2022/12/15 07:24:29;;;;;;;1.80;1.63;;;;;;;;;;4934216;29;20039;-66
2022/12/15 07:26:55;;;;;;;2.20;2.00;;;;;;;;;;4934574;29;20039;-67
2022/12/15 07:29:20;;;;;;;5.40;2.43;;;;;;;;;;4933399;29;20039;-66
2022/12/15 07:31:46;;;;;;;0.90;0.90;;;;;;;;;;4933555;29;20035;-66
2022/12/15 07:34:14;;;;;;;1.40;1.30;;;;;;;;;;4933551;29;20043;-67
2022/12/15 07:36:40;;;;;;;2.23;2.10;;;;;;;;;;4918067;29;20046;-69
2022/12/15 07:39:06;;;;;;;3.23;2.93;;;;;;;;;;4918167;29;20039;-70
2022/12/15 07:41:32;;;;;;;2.40;2.00;;;;;;;;;;4917984;29;20044;-68
2022/12/15 07:43:58;;;;;;;2.87;2.60;;;;;;;;;;4949952;29;20046;-72
2022/12/15 07:46:25;;;;;;;2.13;1.90;;;;;;;;;;4948795;29;20074;-69
2022/12/15 07:48:52;;;;;;;0.70;0.70;;;;;;;;;;4933267;29;20043;-73
2022/12/15 07:51:19;;;;;;;1.90;1.80;;;;;;;;;;4933018;29;20406;-71
2022/12/15 07:53:44;;;;;;;1.10;1.10;;;;;;;;;;4933648;29;20458;-70
2022/12/15 07:56:10;;;;;;;0.93;0.93;;;;;;;;;;4933927;29;20043;-73
2022/12/15 07:58:36;;;;;;;2.80;2.60;;;;;;;;;;4932639;29;20051;-73
2022/12/15 08:01:03;;;;;;;1.77;1.67;;;;;;;;;;4932739;29;20054;-72
2022/12/15 08:03:29;;;;;;;1.00;1.00;;;;;;;;;;4913264;29;20062;-74
2022/12/15 08:06:05;;;;;;;1.53;1.43;;;;;;;;;;4931901;29;20386;-71
2022/12/15 08:08:35;;;;;;;1.55;1.45;;;;;;;;;;4951610;29;20050;-71
2022/12/15 08:11:04;;;;;;;1.23;1.23;;;;;;;;;;4932577;29;20035;-69
2022/12/15 08:13:30;;;;;;;1.47;1.37;;;;;;;;;;4932709;29;20043;-69
2022/12/15 08:15:58;;;;;;;2.07;1.87;;;;;;;;;;4930106;29;20031;-70
2022/12/15 08:18:24;;;;;;;1.80;1.70;;;;;;;;;;4913720;29;20058;-70
2022/12/15 08:20:50;;;;;;;5.93;2.57;;;;;;;;;;4933443;29;20058;-69
2022/12/15 08:23:16;;;;;;;0.90;0.90;;;;;;;;;;4917321;29;20074;-68
2022/12/15 08:25:42;;;;;;;1.20;1.10;;;;;;;;;;4933316;29;20122;-68
2022/12/15 08:28:07;;;;;;;1.90;1.80;;;;;;;;;;4933378;29;20039;-71
2022/12/15 08:30:34;;;;;;;2.93;2.63;;;;;;;;;;4949068;29;20027;-71
2022/12/15 08:33:01;;;;;;;4.23;2.63;;;;;;;;;;4933746;29;20043;-71
2022/12/15 08:35:27;;;;;;;1.83;1.73;;;;;;;;;;4933144;29;20082;-71
2022/12/15 08:37:53;;;;;;;0.90;0.90;;;;;;;;;;4917709;29;20079;-72
2022/12/15 08:40:19;;;;;;;0.87;0.87;;;;;;;;;;4942170;28;20038;-71
2022/12/15 08:42:45;;;;;;;1.40;1.30;;;;;;;;;;4936366;28;20045;-71
2022/12/15 08:45:12;;;;;;;1.07;1.07;;;;;;;;;;4952502;28;20042;-72
2022/12/15 08:47:38;;;;;;;2.03;1.93;;;;;;;;;;4966634;28;20743;-71
2022/12/15 08:50:05;;;;;;;1.47;1.37;;;;;;;;;;4936223;28;20043;-70
2022/12/15 08:52:31;;;;;;;0.87;0.87;;;;;;;;;;4952239;28;20041;-70
2022/12/15 08:54:57;;;;;;;0.90;0.90;;;;;;;;;;4952292;28;20122;-71
2022/12/15 08:57:22;;;;;;;1.33;1.33;;;;;;;;;;4952339;28;20047;-70
2022/12/15 08:59:48;;;;;;;1.20;1.10;;;;;;;;;;4936282;28;20042;-70
2022/12/15 09:02:14;;;;;;;1.77;1.67;;;;;;;;;;4936768;28;20039;-70
2022/12/15 09:04:39;;;;;;;2.20;2.03;;;;;;;;;;4952422;28;20129;-70
2022/12/15 09:07:06;;;;;;;0.70;0.70;;;;;;;;;;4952272;28;20390;-70
2022/12/15 09:09:31;;;;;;;0.60;0.60;;;;;;;;;;4951834;28;20520;-69
2022/12/15 09:11:57;;;;;;;1.03;1.03;;;;;;;;;;4967528;28;20078;-71
2022/12/15 09:14:23;;;;;;;2.83;2.63;;;;;;;;;;4953089;28;20045;-70
2022/12/15 09:16:49;;;;;;;1.83;1.73;;;;;;;;;;4956155;28;20043;-70
2022/12/15 09:19:15;;;;;;;2.07;1.97;;;;;;;;;;4939473;28;20097;-69
2022/12/15 09:21:43;;;;;;;2.10;1.77;;;;;;;;;;4955718;28;20146;-70
2022/12/15 09:24:11;;;;;;;1.20;1.17;;;;;;;;;;4955561;28;20388;-70
2022/12/15 09:26:37;;;;;;;0.60;0.60;;;;;;;;;;4939739;28;20405;-73
2022/12/15 09:29:03;;;;;;;1.57;1.47;;;;;;;;;;4939527;28;20038;-73
2022/12/15 09:31:31;;;;;;;0.93;0.93;;;;;;;;;;4939709;28;20484;-71
2022/12/15 09:33:57;;;;;;;3.27;1.37;;;;;;;;;;4971672;28;20045;-74
2022/12/15 09:36:24;;;;;;;1.50;1.40;;;;;;;;;;4939432;28;20030;-74
2022/12/15 09:38:49;;;;;;;1.57;1.47;;;;;;;;;;4955344;28;20815;-73
2022/12/15 09:41:35;;;;;;;1.57;1.37;;;;;;;;;;4955428;28;20042;-73
2022/12/15 09:44:02;;;;;;;1.83;1.70;;;;;;;;;;4954765;28;20053;-74
2022/12/15 09:46:49;;;;;;;1.07;0.97;;;;;;;;;;4937361;28;20031;-73
2022/12/15 09:49:33;;;;;;;3.37;2.20;;;;;;;;;;4955809;28;20053;-74
2022/12/15 09:52:21;;;;;;;1.53;1.37;;;;;;;;;;4944442;29;20043;-73
2022/12/15 09:54:47;;;;;;;1.37;1.27;;;;;;;;;;4952713;29;20039;-74
2022/12/15 09:57:19;;;;;;;3.80;2.03;;;;;;;;;;4919925;29;20058;-74
2022/12/15 10:00:00;;;;;;;1.20;1.10;;;;;;;;;;4933600;29;20488;-72
2022/12/15 10:02:29;;;;;;;1.38;1.27;;;;;;;;;;4918059;29;20045;-73
2022/12/15 10:04:58;;;;;;;4.30;2.07;;;;;;;;;;4951149;29;20379;-73
2022/12/15 10:07:31;;;;;;;3.73;2.20;;;;;;;;;;4935572;29;20075;-73
2022/12/15 10:09:57;;;;;;;1.53;1.43;;;;;;;;;;4935646;29;20074;-71
2022/12/15 10:12:29;;;;;;;1.40;1.30;;;;;;;;;;4934619;29;20355;-71
2022/12/15 10:15:06;;;;;;;2.57;2.00;;;;;;;;;;4919976;29;20043;-71
2022/12/15 10:17:47;;;;;;;1.63;1.53;;;;;;;;;;4934851;29;20054;-71
2022/12/15 10:20:13;;;;;;;1.97;1.57;;;;;;;;;;4934601;29;20376;-71
2022/12/15 10:22:39;;;;;;;4.27;2.47;;;;;;;;;;4932635;29;20047;-70
2022/12/15 10:25:16;;;;;;;1.80;1.20;;;;;;;;;;4918846;29;20037;-76
2022/12/15 10:27:41;;;;;;;1.20;1.03;;;;;;;;;;4944322;29;20067;-71
2022/12/15 10:30:08;;;;;;;1.13;1.10;;;;;;;;;;4918793;28;20039;-72
2022/12/15 10:32:33;;;;;;;3.33;2.40;;;;;;;;;;4934962;29;20093;-71
2022/12/15 10:35:00;;;;;;;1.20;1.10;;;;;;;;;;4950175;29;20046;-76
2022/12/15 10:37:29;;;;;;;4.57;2.70;;;;;;;;;;4950278;29;20130;-73
2022/12/15 10:39:56;;;;;;;2.43;2.23;;;;;;;;;;4919250;29;20035;-72
2022/12/15 10:42:23;;;;;;;5.90;1.83;;;;;;;;;;4943871;29;20078;-73
2022/12/15 10:44:50;;;;;;;2.53;2.00;;;;;;;;;;4950720;29;20597;-73
2022/12/15 10:47:21;;;;;;;3.37;2.30;;;;;;;;;;4917462;29;20031;-72
2022/12/15 10:49:47;;;;;;;4.13;3.72;;;;;;;;;;4918845;29;20039;-74
2022/12/15 10:52:26;;;;;;;4.53;2.70;;;;;;;;;;4918742;29;20050;-75
2022/12/15 10:54:53;;;;;;;1.73;1.53;;;;;;;;;;4951363;29;20043;-77
2022/12/15 10:57:30;;;;;;;1.33;1.27;;;;;;;;;;4918976;29;20039;-75
2022/12/15 11:00:26;;;;;;;2.67;1.80;;;;;;;;;;4919034;29;20067;-74
2022/12/15 11:02:51;;;;;;;2.20;1.73;;;;;;;;;;4918082;29;20054;-75
2022/12/15 11:05:17;;;;;;;2.37;1.60;;;;;;;;;;4918939;29;20055;-74
2022/12/15 11:07:51;;;;;;;3.23;2.83;;;;;;;;;;4934121;29;20035;-75
2022/12/15 11:10:16;;;;;;;1.10;1.00;;;;;;;;;;4917450;29;20046;-76
2022/12/15 11:12:52;;;;;;;3.77;2.47;;;;;;;;;;4933398;29;20031;-76
2022/12/15 11:15:21;;;;;;;8.03;3.47;;;;;;;;;;4917274;29;20135;-76
2022/12/15 11:17:52;;;;;;;2.07;1.60;;;;;;;;;;4915416;29;20043;-73
2022/12/15 11:20:17;;;;;;;;;;;;;;;;;;4934982;29;20050;-76
2022/12/15 11:22:50;;;;;;;1.90;1.13;;;;;;;;;;4918285;29;19925;-75
2022/12/15 11:25:47;;;;;;;3.77;2.80;;;;;;;;;;4932104;29;20042;-74
2022/12/15 11:28:19;;;;;;;2.40;2.07;;;;;;;;;;4934628;29;20035;-74
2022/12/15 11:30:49;;;;;;;5.00;2.83;;;;;;;;;;4918334;29;20045;-74
2022/12/15 11:33:19;;;;;;;4.63;3.13;;;;;;;;;;4933708;29;20031;-74
2022/12/15 11:36:08;;;;;;;2.30;1.93;;;;;;;;;;4933785;29;20569;-74
2022/12/15 11:38:39;;;;;;;2.40;1.63;;;;;;;;;;4948877;29;20058;-79
2022/12/15 11:41:15;;;;;;;2.10;1.90;;;;;;;;;;4949330;29;20884;-78
2022/12/15 11:44:01;;;;;;;2.57;2.37;;;;;;;;;;4934566;29;20038;-77
2022/12/15 11:46:29;;;;;;;1.43;0.90;;;;;;;;;;4934968;29;20470;-75
2022/12/15 11:49:05;;;;;;;0.90;0.90;;;;;;;;;;4935889;29;20039;-75
2022/12/15 11:51:34;;;;;;;4.40;2.87;;;;;;;;;;4936660;29;20035;-76
2022/12/15 11:54:18;;;;;;;3.77;1.73;;;;;;;;;;4915416;29;20035;-78
2022/12/15 11:56:56;;;;;;;2.43;2.10;;;;;;;;;;4917572;29;20039;-75
2022/12/15 11:59:38;;;;;;;3.03;2.10;;;;;;;;;;4932409;29;20525;-76
2022/12/15 12:02:06;;;;;;;4.93;3.17;;;;;;;;;;4933030;29;20080;-74
2022/12/15 12:04:51;;;;;;;0.87;0.87;;;;;;;;;;4932367;29;20483;-75
2022/12/15 12:07:23;;;;;;;1.67;1.40;;;;;;;;;;4935984;29;20125;-76
2022/12/15 12:09:55;;;;;;;2.37;2.00;;;;;;;;;;4924221;28;20026;-77
2022/12/15 12:12:25;;;;;;;1.73;1.50;;;;;;;;;;4939630;28;20053;-77
2022/12/15 12:14:54;;;;;;;3.20;2.27;;;;;;;;;;4939642;28;20039;-77
2022/12/15 12:17:36;;;;;;;2.27;2.07;;;;;;;;;;4955621;28;20070;-76
2022/12/15 12:20:08;;;;;;;2.73;2.27;;;;;;;;;;4955749;28;20070;-77
2022/12/15 12:22:39;;;;;;;4.20;2.50;;;;;;;;;;4939319;28;20043;-77
2022/12/15 12:25:12;;;;;;;3.20;2.50;;;;;;;;;;4955508;28;20401;-79
2022/12/15 12:27:48;;;;;;;5.70;3.80;;;;;;;;;;4971414;28;20436;-77
2022/12/15 12:30:15;;;;;;;3.83;2.80;;;;;;;;;;4939721;28;20469;-78
2022/12/15 12:32:47;;;;;;;3.57;1.87;;;;;;;;;;4939643;28;20042;-77
2022/12/15 12:35:15;;;;;;;3.27;2.50;;;;;;;;;;4955793;28;20469;-76
2022/12/15 12:37:42;;;;;;;1.43;1.40;;;;;;;;;;4955439;28;20393;-77
2022/12/15 12:40:17;;;;;;;2.40;2.03;;;;;;;;;;4955428;28;20109;-77
2022/12/15 12:42:50;;;;;;;6.00;2.50;;;;;;;;;;4939368;28;20049;-77
2022/12/15 12:45:16;;;;;;;4.43;2.43;;;;;;;;;;4971412;28;20097;-74
2022/12/15 12:47:49;;;;;;;7.10;2.70;;;;;;;;;;4955436;28;20047;-77
2022/12/15 12:50:26;;;;;;;3.47;2.77;;;;;;;;;;4959276;28;20362;-76
2022/12/15 12:52:55;;;;;;;1.13;1.03;;;;;;;;;;4961042;28;20186;-76
2022/12/15 12:55:40;;;;;;;3.87;2.27;;;;;;;;;;4965470;28;20049;-75
2022/12/15 12:58:24;;;;;;;1.53;1.43;;;;;;;;;;4948221;28;20477;-77
2022/12/15 13:01:17;;;;;;;2.67;2.33;;;;;;;;;;4964544;28;20066;-75
2022/12/15 13:03:43;;;;;;;3.20;2.47;;;;;;;;;;4976236;28;20090;-76
2022/12/15 13:06:41;;;;;;;3.43;2.30;;;;;;;;;;4958974;28;20034;-76
2022/12/15 13:09:16;;;;;;;1.60;1.50;;;;;;;;;;4942951;28;20050;-77
2022/12/15 13:11:48;;;;;;;3.93;2.93;;;;;;;;;;4958036;28;20043;-77
2022/12/15 13:14:22;;;;;;;3.53;2.23;;;;;;;;;;4958868;28;20027;-76
2022/12/15 13:16:54;;;;;;;3.60;2.23;;;;;;;;;;4974800;28;20068;-76
2022/12/15 13:19:39;;;;;;;3.90;2.47;;;;;;;;;;4942554;28;20045;-75
2022/12/15 13:22:21;;;;;;;2.47;1.60;;;;;;;;;;4958758;28;20473;-75
2022/12/15 13:24:47;;;;;;;0.80;0.80;;;;;;;;;;4942446;28;20074;-75
2022/12/15 13:27:15;;;;;;;6.13;2.53;;;;;;;;;;4943079;28;20039;-77
2022/12/15 13:29:53;;;;;;;5.07;3.70;;;;;;;;;;4942354;28;20039;-76
2022/12/15 13:32:38;;;;;;;1.17;1.10;;;;;;;;;;4958416;28;20101;-77
2022/12/15 13:35:13;;;;;;;4.20;2.67;;;;;;;;;;4942245;28;20058;-78
2022/12/15 13:37:39;;;;;;;9.43;3.33;;;;;;;;;;4957847;28;20045;-77
2022/12/15 13:40:23;;;;;;;3.03;1.93;;;;;;;;;;4942134;28;20377;-77
2022/12/15 13:42:58;;;;;;;0.97;0.97;;;;;;;;;;4942144;28;20069;-77
2022/12/15 13:45:40;;;;;;;4.17;2.97;;;;;;;;;;4942139;28;20049;-76
2022/12/15 13:48:25;;;;;;;1.50;1.40;;;;;;;;;;4958261;28;20035;-77
2022/12/15 13:50:57;;;;;;;1.40;1.30;;;;;;;;;;4955665;28;20481;-76
2022/12/15 13:53:24;;;;;;;3.23;2.43;;;;;;;;;;4938535;29;20047;-76
2022/12/15 13:56:17;;;;;;;3.30;2.30;;;;;;;;;;4938718;29;20039;-76
2022/12/15 13:58:47;;;;;;;3.57;2.00;;;;;;;;;;4922936;29;20075;-75
2022/12/15 14:01:22;;;;;;;0.82;0.82;;;;;;;;;;4938121;29;20456;-77
2022/12/15 14:03:57;;;;;;;2.03;1.43;;;;;;;;;;4954570;29;20078;-75
2022/12/15 14:06:24;;;;;;;1.00;1.00;;;;;;;;;;4954504;29;20035;-75
2022/12/15 14:08:50;;;;;;;4.40;2.10;;;;;;;;;;4938667;29;20171;-77
2022/12/15 14:11:21;;;;;;;1.87;1.73;;;;;;;;;;4922789;29;20039;-76
2022/12/15 14:13:47;;;;;;;4.63;3.10;;;;;;;;;;4922165;29;20386;-76
2022/12/15 14:16:13;;;;;;;2.03;1.80;;;;;;;;;;4938598;29;20043;-77
2022/12/15 14:18:41;;;;;;;6.27;2.83;;;;;;;;;;4922619;29;20101;-78
2022/12/15 14:21:18;;;;;;;2.00;1.77;;;;;;;;;;4953797;29;20499;-76
2022/12/15 14:23:44;;;;;;;2.47;2.07;;;;;;;;;;4954220;29;20077;-75
2022/12/15 14:26:11;;;;;;;0.80;0.80;;;;;;;;;;4922304;29;20086;-78
2022/12/15 14:28:39;;;;;;;4.03;2.10;;;;;;;;;;4938028;29;20031;-78
2022/12/15 14:31:22;;;;;;;3.07;2.23;;;;;;;;;;4953642;29;20386;-77
2022/12/15 14:33:57;;;;;;;3.67;2.50;;;;;;;;;;4922064;29;20049;-72
2022/12/15 14:36:23;;;;;;;4.80;2.37;;;;;;;;;;4936872;29;20043;-78
2022/12/15 14:38:57;;;;;;;1.33;1.27;;;;;;;;;;4937644;29;20105;-76
2022/12/15 14:41:26;;;;;;;1.00;1.00;;;;;;;;;;4937326;29;20035;-77
2022/12/15 14:43:55;;;;;;;2.00;1.40;;;;;;;;;;4921723;29;20109;-77
2022/12/15 14:46:22;;;;;;;1.40;1.33;;;;;;;;;;4921875;29;20038;-74
2022/12/15 14:48:53;;;;;;;4.07;2.47;;;;;;;;;;4921303;29;20094;-75
2022/12/15 14:51:20;;;;;;;0.70;0.70;;;;;;;;;;4953379;29;20046;-77
2022/12/15 14:53:49;;;;;;;1.70;1.57;;;;;;;;;;4937529;29;20039;-78
2022/12/15 14:56:18;;;;;;;3.97;2.80;;;;;;;;;;4936954;29;20039;-77
2022/12/15 14:58:51;;;;;;;1.43;1.33;;;;;;;;;;4952827;29;20565;-79
2022/12/15 15:01:39;;;;;;;1.50;1.40;;;;;;;;;;4921901;29;20058;-74
2022/12/15 15:04:20;;;;;;;5.27;2.63;;;;;;;;;;4937342;29;20067;-77
2022/12/15 15:06:52;;;;;;;2.47;2.00;;;;;;;;;;4921420;29;20057;-78
2022/12/15 15:09:22;;;;;;;2.13;1.97;;;;;;;;;;4921694;29;20130;-74
2022/12/15 15:11:50;;;;;;;4.27;2.77;;;;;;;;;;4921087;29;20123;-73
2022/12/15 15:14:17;;;;;;;1.10;1.10;;;;;;;;;;4921496;29;20110;-78
2022/12/15 15:16:44;;;;;;;2.70;1.80;;;;;;;;;;4921529;29;20047;-76
2022/12/15 15:19:20;;;;;;;5.20;3.50;;;;;;;;;;4922883;29;20371;-78
2022/12/15 15:21:46;;;;;;;6.45;3.55;;;;;;;;;;4917716;29;20036;-76
2022/12/15 15:24:12;;;;;;;3.40;3.00;;;;;;;;;;4933733;29;20051;-76
2022/12/15 15:26:43;;;;;;;5.63;2.63;;;;;;;;;;4902121;29;20363;-76
2022/12/15 15:29:31;;;;;;;4.67;2.53;;;;;;;;;;4933762;29;20568;-79
2022/12/15 15:32:04;;;;;;;0.73;0.73;;;;;;;;;;4917888;29;20040;-77
2022/12/15 15:34:30;;;;;;;1.30;1.30;;;;;;;;;;4901946;29;20040;-77
2022/12/15 15:37:04;;;;;;;6.40;4.33;;;;;;;;;;4917468;29;20050;-76
2022/12/15 15:39:31;;;;;;;4.93;3.87;;;;;;;;;;4919710;29;20378;-77
2022/12/15 15:42:02;;;;;;;2.77;2.50;;;;;;;;;;4920603;29;20130;-78
2022/12/15 15:44:28;;;;;;;1.80;1.70;;;;;;;;;;4920984;29;20091;-76
2022/12/15 15:46:54;;;;;;;3.70;3.07;;;;;;;;;;4936469;29;20051;-76
2022/12/15 15:49:20;;;;;;;3.63;3.27;;;;;;;;;;4920737;29;20035;-72
2022/12/15 15:51:46;;;;;;;1.77;1.67;;;;;;;;;;4916117;29;20036;-75
2022/12/15 15:54:14;;;;;;;2.87;2.23;;;;;;;;;;4936410;29;20101;-77
2022/12/15 15:56:40;;;;;;;2.50;2.23;;;;;;;;;;4936247;29;20385;-72
2022/12/15 15:59:16;;;;;;;1.97;1.87;;;;;;;;;;4936194;29;20142;-74
2022/12/15 16:01:42;;;;;;;2.20;1.70;;;;;;;;;;4936223;29;20035;-76
2022/12/15 16:04:08;;;;;;;1.53;1.30;;;;;;;;;;4920613;29;20142;-74
2022/12/15 16:06:34;;;;;;;1.00;1.00;;;;;;;;;;4920575;29;20445;-75
2022/12/15 16:09:00;;;;;;;4.73;2.80;;;;;;;;;;4920370;29;20043;-72
2022/12/15 16:11:29;;;;;;;2.33;1.97;;;;;;;;;;4920118;29;20038;-76
2022/12/15 16:13:55;;;;;;;3.00;1.97;;;;;;;;;;4920135;29;20047;-71
2022/12/15 16:16:23;;;;;;;2.87;2.10;;;;;;;;;;4936206;29;20067;-72
2022/12/15 16:18:50;;;;;;;2.23;1.17;;;;;;;;;;4920553;29;20047;-69
2022/12/15 16:21:16;;;;;;;2.57;2.20;;;;;;;;;;4920836;29;20047;-71
2022/12/15 16:23:43;;;;;;;4.50;3.37;;;;;;;;;;4939101;29;20042;-71
2022/12/15 16:26:24;;;;;;;1.70;1.27;;;;;;;;;;4959725;29;20054;-71
2022/12/15 16:28:50;;;;;;;2.67;2.43;;;;;;;;;;4928970;28;20035;-69
2022/12/15 16:31:26;;;;;;;2.63;2.10;;;;;;;;;;4926370;29;20158;-71
2022/12/15 16:33:51;;;;;;;1.67;1.57;;;;;;;;;;4926371;29;20043;-69
2022/12/15 16:36:18;;;;;;;1.90;1.70;;;;;;;;;;4926922;29;20042;-70
2022/12/15 16:38:49;;;;;;;2.17;1.77;;;;;;;;;;4942895;29;20050;-70
2022/12/15 16:41:18;;;;;;;1.13;1.13;;;;;;;;;;4942236;29;20051;-71
2022/12/15 16:43:45;;;;;;;3.28;2.40;;;;;;;;;;4942619;28;20039;-71
2022/12/15 16:46:14;;;;;;;1.83;1.73;;;;;;;;;;4925796;29;20066;-71
2022/12/15 16:48:42;;;;;;;1.57;1.47;;;;;;;;;;4941726;29;20466;-72
2022/12/15 16:51:17;;;;;;;1.47;1.37;;;;;;;;;;4926663;29;20090;-69
2022/12/15 16:53:46;;;;;;;1.43;1.10;;;;;;;;;;4925967;29;20050;-71
2022/12/15 16:56:13;;;;;;;2.23;2.03;;;;;;;;;;4925495;29;20498;-68
2022/12/15 16:58:38;;;;;;;1.40;1.30;;;;;;;;;;4941637;29;20413;-68
2022/12/15 17:01:04;;;;;;;2.63;1.70;;;;;;;;;;4941823;29;20041;-66
2022/12/15 17:03:30;;;;;;;1.40;1.30;;;;;;;;;;4941308;28;20462;-66
2022/12/15 17:05:59;;;;;;;0.97;0.97;;;;;;;;;;4925869;29;20470;-68
2022/12/15 17:08:46;;;;;;;1.90;1.57;;;;;;;;;;4941856;29;20141;-68
2022/12/15 17:11:16;;;;;;;2.13;1.73;;;;;;;;;;4957642;28;20085;-71
2022/12/15 17:13:43;;;;;;;2.40;1.63;;;;;;;;;;4941373;29;20049;-68
2022/12/15 17:16:10;;;;;;;1.30;0.80;;;;;;;;;;4941912;29;20102;-69